createdAt,value
2023-03-13T00:03:55.511Z,10.12
2023-03-13T00:08:07.249Z,10.13
2023-03-13T00:12:19.178Z,10.07
2023-03-13T00:16:31.766Z,10.06
2023-03-13T00:20:43.483Z,10.06
2023-03-13T00:24:55.097Z,9.99
2023-03-13T00:29:06.708Z,9.99
2023-03-13T00:33:18.389Z,10.10
2023-03-13T00:37:31.973Z,10.16
2023-03-13T00:41:44.721Z,10.05
2023-03-13T00:45:56.890Z,10.07
2023-03-13T00:50:08.962Z,10.01
2023-03-13T00:54:20.591Z,10.01
2023-03-13T00:58:37.961Z,9.95
2023-03-13T01:02:49.720Z,9.85
2023-03-13T01:07:01.541Z,9.75
2023-03-13T01:11:17.121Z,9.88
2023-03-13T01:15:28.831Z,9.91
2023-03-13T01:19:40.480Z,9.86
2023-03-13T01:23:54.501Z,9.88
2023-03-13T01:28:06.235Z,9.91
2023-03-13T01:32:18.067Z,9.86
2023-03-13T01:36:30.190Z,9.86
2023-03-13T01:40:47.591Z,9.98
2023-03-13T01:44:59.301Z,9.99
2023-03-13T01:49:19.376Z,9.97
2023-03-13T01:54:11.365Z,9.97
2023-03-13T01:58:23.689Z,9.98
2023-03-13T02:02:38.194Z,10.02
2023-03-13T02:06:54.703Z,10.12
2023-03-13T02:11:25.456Z,10.09
2023-03-13T02:15:37.279Z,10.13
2023-03-13T02:19:52.348Z,10.17
2023-03-13T02:24:25.885Z,10.12
2023-03-13T02:28:39.540Z,10.21
2023-03-13T02:32:56.329Z,10.24
2023-03-13T02:37:13.048Z,10.39
2023-03-13T02:41:26.905Z,10.41
2023-03-13T02:45:40.502Z,10.40
2023-03-13T02:49:53.457Z,10.47
2023-03-13T02:54:10.481Z,10.49
2023-03-13T02:58:25.069Z,10.61
2023-03-13T03:02:36.755Z,10.43
2023-03-13T03:06:49.324Z,10.54
2023-03-13T03:11:01.620Z,10.60
2023-03-13T03:15:13.675Z,10.74
2023-03-13T03:19:29.553Z,10.81
2023-03-13T03:23:41.343Z,10.78
2023-03-13T03:27:53.144Z,10.97
2023-03-13T03:32:06.061Z,10.89
2023-03-13T03:36:21.765Z,11.07
2023-03-13T03:40:34.010Z,11.03
2023-03-13T03:44:45.791Z,11.07
2023-03-13T03:48:59.491Z,11.15
2023-03-13T03:53:11.133Z,11.16
2023-03-13T03:57:22.911Z,11.19
2023-03-13T04:01:34.634Z,11.16
2023-03-13T04:05:48.298Z,11.33
2023-03-13T04:10:00.527Z,11.20
2023-03-13T04:14:20.073Z,11.32
2023-03-13T04:18:32.051Z,11.44
2023-03-13T04:22:44.547Z,11.41
2023-03-13T04:26:57.343Z,11.44
2023-03-13T04:31:09.396Z,11.42
2023-03-13T04:35:44.554Z,11.52
2023-03-13T04:40:02.276Z,11.54
2023-03-13T04:44:33.065Z,11.59
2023-03-13T04:49:08.891Z,11.70
2023-03-13T04:53:39.467Z,11.72
2023-03-13T04:58:11.414Z,11.71
2023-03-13T05:02:29.214Z,11.78
2023-03-13T05:07:04.117Z,11.78
2023-03-13T05:11:34.578Z,11.77
2023-03-13T05:16:15.755Z,11.88
2023-03-13T05:20:46.270Z,11.90
2023-03-13T05:25:27.263Z,11.92
2023-03-13T05:30:01.864Z,12.03
2023-03-13T05:34:39.751Z,12.02
2023-03-13T05:39:10.013Z,11.99
2023-03-13T05:43:40.892Z,11.95
2023-03-13T05:48:12.835Z,12.11
2023-03-13T05:52:41.280Z,12.14
2023-03-13T05:57:25.209Z,12.10
2023-03-13T06:01:48.896Z,12.22
2023-03-13T06:06:10.407Z,12.18
2023-03-13T06:10:35.301Z,12.13
2023-03-13T06:14:47.044Z,12.15
2023-03-13T06:19:08.948Z,12.24
2023-03-13T06:23:20.580Z,12.20
2023-03-13T06:27:32.238Z,12.31
2023-03-13T06:31:44.013Z,12.21
2023-03-13T06:35:57.114Z,12.25
2023-03-13T06:40:09.761Z,12.48
2023-03-13T06:44:21.478Z,12.43
2023-03-13T06:48:34.109Z,12.51
2023-03-13T06:52:48.001Z,12.34
2023-03-13T06:56:59.776Z,12.51
2023-03-13T07:01:14.176Z,12.51
2023-03-13T07:05:25.950Z,12.56
2023-03-13T07:09:37.697Z,12.57
2023-03-13T07:13:49.464Z,12.63
2023-03-13T07:18:01.155Z,12.75
2023-03-13T07:22:15.166Z,12.75
2023-03-13T07:26:27.168Z,12.79
2023-03-13T07:30:38.840Z,12.88
2023-03-13T07:34:50.581Z,13.02
2023-03-13T07:39:02.310Z,13.02
2023-03-13T07:43:14.182Z,13.15
2023-03-13T07:47:25.946Z,13.18
2023-03-13T07:51:43.975Z,13.23
2023-03-13T07:55:57.542Z,13.27
2023-03-13T08:00:16.403Z,13.16
2023-03-13T08:04:28.090Z,13.18
2023-03-13T08:08:40.601Z,13.04
2023-03-13T08:12:52.403Z,13.09
2023-03-13T08:17:04.244Z,13.12
2023-03-13T08:21:21.058Z,13.02
2023-03-13T08:25:33.256Z,13.17
2023-03-13T08:29:45.074Z,13.35
2023-03-13T08:33:56.863Z,13.55
2023-03-13T08:38:08.574Z,13.67
2023-03-13T08:42:20.366Z,13.71
2023-03-13T08:46:34.469Z,13.64
2023-03-13T08:50:46.329Z,13.41
2023-03-13T08:54:58.140Z,13.26
2023-03-13T08:59:10.352Z,13.54
2023-03-13T09:03:22.327Z,13.84
2023-03-13T09:07:34.056Z,14.27
2023-03-13T09:11:45.774Z,15.01
2023-03-13T09:16:16.894Z,15.32
2023-03-13T09:20:38.799Z,15.31
2023-03-13T09:24:51.142Z,15.03
2023-03-13T09:29:32.106Z,15.14
2023-03-13T09:34:15.840Z,15.04
2023-03-13T09:39:29.383Z,15.19
2023-03-13T09:49:12.996Z,15.94
2023-03-13T09:53:38.493Z,15.79
2023-03-13T09:58:01.169Z,15.32
2023-03-13T10:02:37.017Z,15.35
2023-03-13T10:06:53.674Z,15.56
2023-03-13T10:11:56.591Z,15.39
2023-03-13T11:55:32.235Z,19.18
2023-03-13T12:00:09.988Z,18.99
2023-03-13T12:04:31.051Z,19.13
2023-03-13T12:08:53.237Z,18.60
2023-03-13T12:13:17.607Z,18.57
2023-03-13T12:17:34.896Z,18.52
2023-03-13T12:21:56.627Z,18.40
2023-03-13T12:26:15.250Z,18.50
2023-03-13T12:30:43.251Z,18.92
2023-03-13T12:35:06.928Z,18.89
2023-03-13T12:39:52.589Z,18.89
2023-03-13T12:44:11.376Z,18.56
2023-03-13T12:48:40.281Z,18.31
2023-03-13T12:53:07.614Z,18.27
2023-03-13T12:57:22.238Z,18.12
2023-03-13T13:01:39.816Z,18.15
2023-03-13T13:06:11.708Z,18.63
2023-03-13T13:10:26.848Z,18.63
2023-03-13T13:14:48.079Z,18.93
2023-03-13T13:19:48.201Z,18.94
2023-03-13T13:24:39.871Z,18.86
2023-03-13T13:28:51.673Z,18.64
2023-03-13T13:33:18.892Z,18.82
2023-03-13T13:37:30.632Z,18.74
2023-03-13T13:41:42.553Z,18.69
2023-03-13T13:46:06.051Z,18.74
2023-03-13T13:50:19.777Z,18.75
2023-03-13T13:54:45.508Z,18.56
2023-03-13T13:59:00.216Z,18.42
2023-03-13T14:03:24.400Z,18.29
2023-03-13T14:07:53.217Z,18.28
2023-03-13T14:12:30.736Z,18.18
2023-03-13T14:17:01.064Z,18.28
2023-03-13T14:21:15.457Z,18.08
2023-03-13T14:25:28.664Z,17.88
2023-03-13T14:29:40.798Z,17.83
2023-03-13T14:33:52.840Z,17.71
2023-03-13T14:38:04.559Z,17.65
2023-03-13T14:42:18.133Z,17.78
2023-03-13T14:46:42.898Z,17.53
2023-03-13T14:56:42.364Z,17.63
2023-03-13T15:00:54.983Z,17.45
2023-03-13T15:05:11.073Z,17.43
2023-03-13T15:09:24.401Z,17.30
2023-03-13T15:13:37.180Z,17.29
2023-03-13T15:17:49.021Z,17.12
2023-03-13T15:22:03.322Z,16.96
2023-03-13T15:26:15.356Z,16.99
2023-03-13T15:30:27.177Z,16.99
2023-03-13T15:34:39.002Z,16.93
2023-03-13T15:38:51.856Z,16.77
2023-03-13T15:43:03.621Z,16.76
2023-03-13T15:47:21.493Z,16.77
2023-03-13T15:51:57.894Z,16.60
2023-03-13T15:56:18.525Z,16.68
2023-03-13T16:00:30.464Z,16.64
2023-03-13T16:04:42.844Z,16.48
2023-03-13T16:08:54.586Z,16.46
2023-03-13T16:13:06.886Z,16.34
2023-03-13T16:17:20.508Z,16.36
2023-03-13T16:21:34.634Z,16.31
2023-03-13T16:25:48.694Z,16.15
2023-03-13T16:30:02.027Z,16.07
2023-03-13T16:34:13.840Z,16.07
2023-03-13T16:38:25.698Z,15.81
2023-03-13T16:42:37.400Z,15.72
2023-03-13T16:47:04.416Z,15.57
2023-03-13T16:51:26.305Z,15.58
2023-03-13T16:55:38.085Z,15.46
2023-03-13T16:59:55.780Z,15.35
2023-03-13T17:04:09.980Z,15.18
2023-03-13T17:08:21.768Z,15.11
2023-03-13T17:12:33.464Z,15.00
2023-03-13T17:16:46.281Z,14.76
2023-03-13T17:20:58.040Z,14.72
2023-03-13T17:25:10.582Z,14.63
2023-03-13T17:29:23.846Z,14.54
2023-03-13T17:33:35.576Z,14.40
2023-03-13T17:37:48.428Z,14.39
2023-03-13T17:42:00.430Z,14.47
2023-03-13T17:46:24.243Z,14.42
2023-03-13T17:50:36.377Z,14.21
2023-03-13T17:54:48.201Z,14.15
2023-03-13T17:59:00.813Z,14.17
2023-03-13T18:03:12.687Z,14.12
2023-03-13T18:07:29.267Z,14.08
2023-03-13T18:11:40.981Z,14.01
2023-03-13T18:15:52.770Z,13.99
2023-03-13T18:20:08.568Z,13.98
2023-03-13T18:24:20.600Z,14.08
2023-03-13T18:28:32.354Z,14.07
2023-03-13T18:32:45.150Z,14.02
2023-03-13T18:36:57.105Z,13.99
2023-03-13T18:41:10.089Z,14.00
2023-03-13T18:45:25.251Z,13.99
2023-03-13T18:49:36.918Z,13.99
2023-03-13T18:53:48.664Z,14.02
2023-03-13T18:58:00.511Z,13.99
2023-03-13T19:02:17.547Z,14.03
2023-03-13T19:06:31.872Z,13.94
2023-03-13T19:10:43.673Z,13.80
2023-03-13T19:14:55.564Z,13.81
2023-03-13T19:19:16.816Z,13.84
2023-03-13T19:23:28.589Z,13.80
2023-03-13T19:27:40.798Z,13.76
2023-03-13T19:31:54.642Z,13.70
2023-03-13T19:36:11.943Z,13.42
2023-03-13T19:40:26.270Z,13.52
2023-03-13T19:44:38.341Z,13.56
2023-03-13T19:48:53.646Z,13.39
2023-03-13T19:53:05.325Z,13.23
2023-03-13T19:57:17.111Z,13.07
2023-03-13T20:01:29.608Z,12.93
2023-03-13T20:05:41.486Z,12.68
2023-03-13T20:09:53.203Z,12.55
2023-03-13T20:14:05.560Z,12.60
2023-03-13T20:18:17.219Z,12.59
2023-03-13T20:22:28.913Z,12.66
2023-03-13T20:26:40.745Z,12.89
2023-03-13T20:30:54.545Z,12.76
2023-03-13T20:35:10.547Z,12.88
2023-03-13T20:39:23.973Z,13.09
2023-03-13T20:43:37.027Z,13.05
2023-03-13T20:47:48.736Z,12.98
2023-03-13T20:52:00.465Z,13.03
2023-03-13T20:56:12.392Z,13.15
2023-03-13T21:00:24.710Z,13.03
2023-03-13T21:04:36.829Z,12.81
2023-03-13T21:08:48.537Z,12.93
2023-03-13T21:13:00.132Z,12.96
2023-03-13T21:17:13.402Z,12.92
2023-03-13T21:21:25.244Z,12.84
2023-03-13T21:25:38.565Z,12.74
2023-03-13T21:29:50.961Z,12.49
2023-03-13T21:34:02.787Z,12.65
2023-03-13T21:38:14.651Z,12.44
2023-03-13T21:42:28.110Z,12.74
2023-03-13T21:46:39.918Z,12.61
2023-03-13T21:50:53.155Z,12.64
2023-03-13T21:55:07.645Z,12.77
2023-03-13T21:59:21.858Z,12.79
2023-03-13T22:03:33.687Z,12.74
2023-03-13T22:07:45.649Z,12.70
2023-03-13T22:11:57.632Z,12.63
2023-03-13T22:16:11.585Z,12.58
2023-03-13T22:20:23.299Z,12.55
2023-03-13T22:24:34.984Z,12.61
2023-03-13T22:28:48.102Z,12.54
2023-03-13T22:33:00.007Z,12.53
2023-03-13T22:37:12.248Z,12.55
2023-03-13T22:41:24.042Z,12.54
2023-03-13T22:45:36.617Z,12.54
2023-03-13T22:49:48.480Z,12.43
2023-03-13T22:54:00.205Z,12.26
2023-03-13T22:58:14.826Z,12.33
2023-03-13T23:02:29.981Z,12.30
2023-03-13T23:06:41.773Z,12.15
2023-03-13T23:10:53.744Z,12.26
2023-03-13T23:15:06.444Z,12.41
2023-03-13T23:19:21.129Z,12.39
2023-03-13T23:23:35.412Z,12.48
2023-03-13T23:27:49.368Z,12.54
2023-03-13T23:32:01.065Z,12.55
2023-03-13T23:36:15.474Z,12.64
2023-03-13T23:40:28.276Z,12.65
2023-03-13T23:44:42.953Z,12.45
2023-03-13T23:48:56.235Z,12.64
2023-03-13T23:53:11.135Z,12.53
2023-03-13T23:57:22.996Z,12.53
